Time;durP1;ratioP1;P1;durP2;ratioP2;P2;SDS_P1;SDS_P2;PMS_P1;PMS_P2;Temp;Humidity;BMP_temperature;BMP_pressure;BME280_temperature;BME280_humidity;BME280_pressure;Samples;Min_cycle;Max_cycle;Signal;HPM_P1;HPM_P2
2022/08/13 00:01:56;;;;;;;4.03;2.50;;;;;;;33.82;25.35;101730.53;5092343;28;20031;-77
2022/08/13 00:04:24;;;;;;;4.55;2.90;;;;;;;33.77;25.35;101723.84;5091093;28;20035;-77
2022/08/13 00:09:17;;;;;;;8.85;3.10;;;;;;;33.35;24.54;101716.06;5099511;28;20039;-77
2022/08/13 00:14:31;;;;;;;3.53;2.95;;;;;;;33.60;24.31;101726.28;5111775;28;20085;-77
2022/08/13 00:16:59;;;;;;;8.98;3.38;;;;;;;33.40;24.18;101721.88;5084289;28;20024;-77
2022/08/13 00:19:26;;;;;;;5.55;2.97;;;;;;;33.54;24.25;101726.88;5073581;28;20027;-77
2022/08/13 00:21:53;;;;;;;6.05;3.00;;;;;;;33.38;24.63;101726.63;5074191;28;20031;-77
2022/08/13 00:24:19;;;;;;;5.25;2.88;;;;;;;33.36;23.96;101717.75;5079163;28;20143;-77
2022/08/13 00:26:44;;;;;;;7.25;2.40;;;;;;;33.28;24.26;101722.06;5080284;28;20468;-77
2022/08/13 00:29:10;;;;;;;3.13;2.60;;;;;;;33.39;25.07;101722.91;5091286;28;20031;-77
2022/08/13 00:31:37;;;;;;;5.40;2.72;;;;;;;33.28;24.83;101719.34;5094546;28;20084;-77
2022/08/13 00:34:03;;;;;;;6.78;2.90;;;;;;;33.25;24.54;101716.94;5092255;28;20540;-77
2022/08/13 00:36:34;;;;;;;3.63;2.63;;;;;;;33.33;24.00;101718.06;5112512;28;20028;-77
2022/08/13 00:39:00;;;;;;;4.18;2.90;;;;;;;32.75;24.48;101722.41;5094284;28;20118;-77
2022/08/13 00:41:37;;;;;;;4.50;2.83;;;;;;;33.09;24.64;101722.03;5078680;28;20114;-77
2022/08/13 00:44:07;;;;;;;2.92;2.15;;;;;;;33.43;24.00;101718.91;5104109;28;20024;-77
2022/08/13 00:46:33;;;;;;;6.72;2.78;;;;;;;32.97;24.64;101726.72;5106686;28;20056;-77
2022/08/13 00:49:01;;;;;;;5.93;2.70;;;;;;;32.57;24.70;101717.63;5073646;28;20044;-77
2022/08/13 00:51:27;;;;;;;6.28;2.75;;;;;;;32.97;24.20;101719.47;5073914;28;20120;-77
2022/08/13 00:53:58;;;;;;;5.15;2.65;;;;;;;32.86;24.07;101716.88;5086871;28;20126;-77
2022/08/13 00:56:25;;;;;;;5.05;2.78;;;;;;;33.18;24.30;101720.31;5076165;28;20028;-76
2022/08/13 00:58:51;;;;;;;6.47;2.30;;;;;;;33.26;23.89;101715.94;5108202;28;20036;-77
2022/08/13 01:01:25;;;;;;;3.53;2.72;;;;;;;33.23;23.96;101718.88;5093085;28;20047;-77
2022/08/13 01:03:51;;;;;;;3.03;2.65;;;;;;;32.90;24.55;101718.28;5077698;28;20123;-77
2022/08/13 01:06:16;;;;;;;3.72;2.30;;;;;;;32.83;24.62;101717.16;5073008;28;20131;-77
2022/08/13 01:08:42;;;;;;;3.95;2.53;;;;;;;33.34;24.22;101720.63;5072635;28;20085;-77
2022/08/13 01:11:11;;;;;;;5.35;2.70;;;;;;;32.68;24.26;101713.97;5073243;28;20024;-76
2022/08/13 01:13:39;;;;;;;3.67;2.42;;;;;;;32.85;24.63;101709.75;5073520;28;20467;-77
2022/08/13 01:16:07;;;;;;;3.60;2.72;;;;;;;32.58;24.34;101716.66;5090061;28;20031;-77
2022/08/13 01:18:36;;;;;;;5.32;2.55;;;;;;;32.53;25.55;101710.78;5091402;28;20115;-77
2022/08/13 01:21:15;;;;;;;5.35;2.70;;;;;;;32.79;24.12;101716.56;5095308;28;20034;-77
2022/08/13 01:23:44;;;;;;;3.45;2.70;;;;;;;32.32;25.21;101712.75;5093051;28;20059;-77
2022/08/13 01:26:10;;;;;;;6.93;2.70;;;;;;;32.85;24.81;101720.59;5097965;28;20392;-77
2022/08/13 01:28:38;;;;;;;4.07;2.33;;;;;;;32.12;25.65;101718.91;5086799;28;20032;-77
2022/08/13 01:31:06;;;;;;;3.00;2.38;;;;;;;32.49;25.43;101720.19;5076873;28;20024;-77
2022/08/13 01:33:35;;;;;;;4.40;2.50;;;;;;;32.66;25.32;101715.97;5084891;28;20468;-77
2022/08/13 01:36:03;;;;;;;5.50;2.90;;;;;;;32.68;24.43;101721.22;5095729;28;20024;-77
2022/08/13 01:38:29;;;;;;;2.83;2.53;;;;;;;32.52;25.13;101719.03;5106460;28;20400;-77
2022/08/13 01:40:55;;;;;;;4.85;2.53;;;;;;;32.34;25.27;101726.97;5076240;28;20024;-77
2022/08/13 01:43:21;;;;;;;9.98;2.83;;;;;;;32.56;25.32;101721.34;5091263;28;20505;-77
2022/08/13 01:45:49;;;;;;;4.47;2.80;;;;;;;32.39;24.75;101722.84;5091784;28;20036;-77
2022/08/13 01:50:59;;;;;;;2.80;2.50;;;;;;;32.36;24.87;101725.00;5112048;28;20039;-77
2022/08/13 01:53:24;;;;;;;3.00;2.70;;;;;;;32.17;24.89;101723.06;5087375;28;20023;-77
2022/08/13 01:55:54;;;;;;;4.82;2.90;;;;;;;32.20;25.32;101720.94;5093249;28;20033;-77
2022/08/13 01:58:23;;;;;;;5.63;2.85;;;;;;;32.14;25.23;101718.75;5092635;28;20016;-77
2022/08/13 02:01:01;;;;;;;6.30;2.70;;;;;;;32.05;25.70;101722.25;5094264;28;20024;-77
2022/08/13 02:03:27;;;;;;;2.75;2.42;;;;;;;31.70;26.58;101723.50;5076475;28;20020;-77
2022/08/13 02:05:53;;;;;;;4.47;2.60;;;;;;;31.56;25.84;101720.09;5093619;28;20071;-77
2022/08/13 02:08:22;;;;;;;5.72;2.67;;;;;;;32.06;26.02;101718.56;5093690;28;20103;-77
2022/08/13 02:10:49;;;;;;;3.63;2.60;;;;;;;32.05;25.48;101723.09;5075471;28;20024;-77
2022/08/13 02:13:17;;;;;;;6.43;3.10;;;;;;;31.82;25.43;101717.03;5075876;28;20028;-77
2022/08/13 02:15:45;;;;;;;5.13;2.45;;;;;;;31.84;26.12;101715.03;5095710;28;20020;-77
2022/08/13 02:18:19;;;;;;;5.18;2.92;;;;;;;31.56;25.68;101720.09;5096022;28;20058;-77
2022/08/13 02:20:50;;;;;;;3.75;2.42;;;;;;;31.96;26.11;101719.38;5092957;28;20039;-77
2022/08/13 02:23:27;;;;;;;4.05;3.35;;;;;;;31.73;26.04;101717.81;5093502;28;20032;-77
2022/08/13 02:25:53;;;;;;;5.78;2.90;;;;;;;31.85;26.17;101716.75;5101411;28;20035;-77
2022/08/13 02:28:19;;;;;;;6.35;2.53;;;;;;;32.00;26.09;101724.50;5101700;28;20111;-77
2022/08/13 02:30:50;;;;;;;10.80;2.63;;;;;;;31.79;26.91;101717.28;5075220;28;20023;-77
2022/08/13 02:33:16;;;;;;;4.30;2.60;;;;;;;31.93;26.17;101718.78;5075212;28;20047;-77
2022/08/13 02:35:45;;;;;;;8.38;2.97;;;;;;;31.93;25.87;101714.25;5075948;28;20472;-77
2022/08/13 02:38:11;;;;;;;5.60;3.08;;;;;;;31.95;26.58;101724.91;5075327;28;20036;-77
2022/08/13 02:43:29;;;;;;;3.65;2.65;;;;;;;31.82;26.04;101722.44;5094966;28;20089;-77
2022/08/13 02:45:55;;;;;;;3.60;2.72;;;;;;;31.56;26.29;101717.41;5092835;28;20048;-77
2022/08/13 02:48:23;;;;;;;3.03;2.80;;;;;;;31.72;26.08;101721.50;5083047;28;20471;-76
2022/08/13 02:50:50;;;;;;;5.45;2.90;;;;;;;31.22;27.30;101725.66;5081800;28;20031;-77
2022/08/13 02:53:19;;;;;;;3.70;3.00;;;;;;;31.28;26.36;101719.78;5074665;28;20480;-77
2022/08/13 02:55:47;;;;;;;6.10;3.60;;;;;;;30.56;26.97;101723.03;5100803;28;20022;-77
2022/08/13 02:58:13;;;;;;;4.60;2.92;;;;;;;30.65;27.28;101721.41;5092003;28;20430;-77
2022/08/13 03:00:41;;;;;;;4.10;2.95;;;;;;;30.82;26.65;101723.56;5113475;28;20019;-76
2022/08/13 03:03:07;;;;;;;3.88;3.10;;;;;;;30.68;26.62;101721.13;5095567;28;20122;-77
2022/08/13 03:05:33;;;;;;;7.45;3.22;;;;;;;31.02;26.15;101718.34;5095248;28;20019;-77
2022/08/13 03:07:58;;;;;;;4.03;3.40;;;;;;;31.24;26.74;101712.03;5109679;28;20027;-77
2022/08/13 03:10:27;;;;;;;6.80;3.38;;;;;;;31.11;26.71;101718.47;5100367;28;20024;-77
2022/08/13 03:12:59;;;;;;;9.70;3.30;;;;;;;31.06;26.42;101717.16;5075215;28;20028;-77
2022/08/13 03:15:26;;;;;;;7.03;3.57;;;;;;;30.95;27.08;101718.88;5074399;28;20020;-77
2022/08/13 03:17:52;;;;;;;6.05;3.20;;;;;;;30.82;26.94;101718.19;5074167;28;20064;-77
2022/08/13 03:20:18;;;;;;;4.65;2.85;;;;;;;31.01;26.30;101724.72;5092104;28;20042;-77
2022/08/13 03:22:51;;;;;;;4.20;3.17;;;;;;;31.27;26.30;101717.16;5094747;28;20402;-77
2022/08/13 03:25:16;;;;;;;;;;;;;;;31.32;27.13;101714.09;5104030;28;20180;-77
2022/08/13 03:27:42;;;;;;;3.97;3.08;;;;;;;30.72;27.25;101728.00;5097934;28;19960;-77
2022/08/13 03:30:11;;;;;;;8.75;3.00;;;;;;;30.86;27.63;101724.16;5086803;28;20526;-77
2022/08/13 03:32:41;;;;;;;9.05;3.33;;;;;;;30.96;27.49;101723.28;5094849;28;20387;-77
2022/08/13 03:35:10;;;;;;;3.30;2.97;;;;;;;30.97;27.51;101724.16;5111727;28;20024;-77
2022/08/13 03:37:35;;;;;;;4.63;3.25;;;;;;;30.92;26.58;101724.50;5089264;28;20028;-77
2022/08/13 03:40:02;;;;;;;6.05;3.20;;;;;;;30.86;27.83;101724.16;5074566;28;20491;-77
2022/08/13 03:42:27;;;;;;;5.93;3.25;;;;;;;30.95;27.31;101718.00;5091809;28;20036;-77
2022/08/13 03:44:54;;;;;;;4.22;2.92;;;;;;;30.87;27.25;101726.75;5083478;28;20491;-77
2022/08/13 03:47:19;;;;;;;5.38;3.20;;;;;;;30.85;27.54;101728.72;5091384;28;20020;-77
2022/08/13 03:49:46;;;;;;;4.30;2.85;;;;;;;30.91;27.13;101727.34;5086244;28;20479;-77
2022/08/13 03:52:13;;;;;;;3.65;2.65;;;;;;;30.55;28.37;101726.69;5070514;28;20449;-77
2022/08/13 03:54:39;;;;;;;5.25;2.88;;;;;;;30.50;27.54;101726.19;5071914;28;20024;-77
2022/08/13 03:57:04;;;;;;;7.30;3.20;;;;;;;30.41;27.80;101730.47;5075168;28;20085;-77
2022/08/13 03:59:31;;;;;;;7.25;3.33;;;;;;;30.53;28.59;101724.13;5092559;28;20024;-77
2022/08/13 04:02:01;;;;;;;3.83;2.72;;;;;;;30.55;27.87;101724.00;5090853;28;20032;-77
2022/08/13 04:04:27;;;;;;;4.45;3.15;;;;;;;30.53;28.53;101724.13;5089287;28;20243;-77
2022/08/13 04:06:53;;;;;;;6.13;3.28;;;;;;;30.52;28.64;101722.41;5089823;28;20399;-77
2022/08/13 04:09:18;;;;;;;5.68;2.70;;;;;;;30.45;28.03;101721.19;5092319;28;20102;-78
2022/08/13 04:11:46;;;;;;;7.05;3.17;;;;;;;30.49;28.78;101719.97;5089797;28;20115;-78
2022/08/13 04:14:11;;;;;;;4.50;3.42;;;;;;;30.41;28.73;101722.38;5071190;28;20062;-78
2022/08/13 04:16:37;;;;;;;4.22;3.17;;;;;;;30.37;28.97;101723.63;5070251;28;20036;-78
2022/08/13 04:19:03;;;;;;;4.68;3.47;;;;;;;30.55;27.91;101716.75;5080362;28;20024;-78
2022/08/13 04:21:31;;;;;;;4.40;3.28;;;;;;;30.47;27.96;101730.00;5091081;28;20423;-78
2022/08/13 04:23:57;;;;;;;6.03;3.30;;;;;;;30.36;28.32;101721.88;5072730;28;20032;-78
2022/08/13 04:26:24;;;;;;;6.00;3.35;;;;;;;30.05;28.46;101718.97;5070188;28;20428;-78
2022/08/13 04:28:53;;;;;;;7.57;3.60;;;;;;;30.01;28.71;101717.50;5070447;28;20115;-78
2022/08/13 04:31:19;;;;;;;5.72;3.50;;;;;;;30.43;28.80;101723.09;5082663;28;20039;-77
2022/08/13 04:33:45;;;;;;;5.93;3.08;;;;;;;30.47;28.48;101719.22;5090151;28;20024;-78
2022/08/13 04:36:11;;;;;;;4.78;3.33;;;;;;;30.10;28.71;101722.13;5090939;28;20016;-78
2022/08/13 04:38:37;;;;;;;3.85;2.83;;;;;;;29.98;28.90;101728.50;5069554;28;20126;-78
2022/08/13 04:41:03;;;;;;;6.10;3.45;;;;;;;30.09;29.08;101720.44;5079226;28;20582;-78
2022/08/13 04:43:29;;;;;;;8.50;3.70;;;;;;;29.81;29.05;101722.56;5089826;28;20032;-78
2022/08/13 04:45:59;;;;;;;4.90;3.13;;;;;;;30.21;29.15;101719.47;5090031;28;20044;-78
2022/08/13 04:48:28;;;;;;;4.82;3.65;;;;;;;30.19;29.34;101721.41;5092054;28;20038;-78
2022/08/13 04:50:53;;;;;;;7.57;3.58;;;;;;;29.92;29.07;101719.06;5090792;28;20077;-78
2022/08/13 04:53:34;;;;;;;7.03;3.78;;;;;;;30.11;29.35;101723.84;5076914;28;20020;-78
2022/08/13 04:56:01;;;;;;;6.38;3.20;;;;;;;30.13;29.71;101730.00;5075245;28;20024;-78
2022/08/13 04:58:32;;;;;;;3.88;3.08;;;;;;;30.19;29.49;101721.41;5073969;28;20484;-78
2022/08/13 05:00:59;;;;;;;6.72;4.32;;;;;;;30.26;28.23;101719.94;5083786;28;20031;-78
2022/08/13 05:03:25;;;;;;;4.45;3.28;;;;;;;30.23;28.48;101717.47;5084632;28;20021;-78
2022/08/13 05:05:54;;;;;;;3.90;2.95;;;;;;;30.13;29.37;101727.31;5075045;28;20078;-77
2022/08/13 05:08:20;;;;;;;4.38;3.40;;;;;;;30.08;28.94;101721.41;5072807;28;20099;-78
2022/08/13 05:10:49;;;;;;;5.05;3.67;;;;;;;30.50;28.19;101728.91;5074214;28;20029;-77
2022/08/13 05:13:37;;;;;;;7.05;3.60;;;;;;;29.82;29.21;101724.28;5094200;28;20035;-78
2022/08/13 05:16:09;;;;;;;8.55;3.50;;;;;;;30.31;28.66;101724.97;5081687;28;20399;-78
2022/08/13 05:18:37;;;;;;;6.93;3.60;;;;;;;29.92;29.49;101722.63;5073897;28;20028;-78
2022/08/13 05:21:05;;;;;;;9.88;3.55;;;;;;;30.13;29.02;101730.00;5076981;28;20058;-78
2022/08/13 05:23:34;;;;;;;4.95;3.30;;;;;;;29.79;29.40;101729.91;5075267;28;20040;-78
2022/08/13 05:25:59;;;;;;;3.78;3.10;;;;;;;30.18;28.98;101726.94;5082003;28;20466;-78
2022/08/13 05:28:25;;;;;;;11.73;3.63;;;;;;;29.90;29.64;101732.66;5092956;28;20120;-78
2022/08/13 05:30:51;;;;;;;4.95;3.22;;;;;;;29.72;29.28;101731.38;5093253;28;20058;-78
2022/08/13 05:33:25;;;;;;;9.90;3.25;;;;;;;29.73;29.63;101735.75;5093078;28;20055;-78
2022/08/13 05:35:55;;;;;;;7.13;3.40;;;;;;;29.73;28.94;101735.75;5086508;28;20009;-77
2022/08/13 05:38:22;;;;;;;5.97;3.40;;;;;;;29.83;29.16;101727.81;5082075;28;20031;-79
2022/08/13 05:40:53;;;;;;;4.68;3.15;;;;;;;29.86;29.05;101735.72;5074195;28;20111;-79
2022/08/13 05:43:22;;;;;;;5.80;3.50;;;;;;;30.21;29.26;101732.94;5076290;28;20243;-80
2022/08/13 05:45:49;;;;;;;7.97;3.30;;;;;;;30.24;29.64;101729.13;5087527;28;20395;-80
2022/08/13 05:48:14;;;;;;;8.13;3.67;;;;;;;30.37;29.10;101732.56;5095443;28;20478;-80
2022/08/13 05:50:42;;;;;;;6.03;2.95;;;;;;;30.55;30.00;101743.72;5084182;28;20118;-79
2022/08/13 05:53:11;;;;;;;7.50;3.58;;;;;;;30.82;28.64;101731.66;5097274;28;20386;-80
2022/08/13 05:55:38;;;;;;;11.25;3.38;;;;;;;31.04;28.26;101732.63;5097458;28;20092;-79
2022/08/13 05:58:10;;;;;;;5.50;3.05;;;;;;;30.89;28.53;101732.88;5081454;28;20034;-78
2022/08/13 06:03:27;;;;;;;9.70;3.40;;;;;;;30.96;28.89;101728.66;5097585;28;20395;-79
2022/08/13 06:05:58;;;;;;;5.50;3.75;;;;;;;30.85;28.65;101731.41;5076997;28;20024;-78
2022/08/13 06:08:29;;;;;;;4.55;2.78;;;;;;;31.06;29.81;101730.66;5103497;28;20344;-78
2022/08/13 06:10:59;;;;;;;7.38;3.55;;;;;;;31.17;29.49;101730.59;5104145;28;20493;-79
2022/08/13 06:13:25;;;;;;;5.32;3.70;;;;;;;31.39;28.77;101731.50;5095252;28;20455;-80
2022/08/13 06:15:58;;;;;;;4.93;3.10;;;;;;;31.52;28.64;101726.75;5092621;28;20076;-79
2022/08/13 06:18:27;;;;;;;4.85;3.20;;;;;;;31.75;28.77;101732.03;5080912;28;20126;-79
2022/08/13 06:20:58;;;;;;;4.72;3.25;;;;;;;31.71;28.21;101736.88;5076331;28;20027;-79
2022/08/13 06:23:24;;;;;;;4.28;3.08;;;;;;;31.30;28.33;101733.97;5075882;28;20035;-79
2022/08/13 06:25:52;;;;;;;6.47;3.75;;;;;;;30.75;29.11;101741.25;5089482;28;20027;-79
2022/08/13 06:28:26;;;;;;;8.20;2.90;;;;;;;31.17;29.30;101736.00;5083881;28;20027;-79
2022/08/13 06:31:01;;;;;;;4.65;2.80;;;;;;;31.77;28.98;101730.94;5076161;28;20446;-80
2022/08/13 06:33:28;;;;;;;11.07;3.05;;;;;;;31.91;28.72;101737.00;5082682;28;20092;-79
2022/08/13 06:35:55;;;;;;;4.28;2.65;;;;;;;31.92;28.34;101738.72;5097093;28;20062;-79
2022/08/13 06:38:25;;;;;;;8.45;3.72;;;;;;;31.78;28.46;101737.22;5093437;28;20446;-79
2022/08/13 06:40:52;;;;;;;4.65;3.20;;;;;;;31.97;28.39;101737.31;5093991;28;20484;-79
2022/08/13 06:43:19;;;;;;;4.78;2.92;;;;;;;32.25;27.80;101743.03;5078196;28;20043;-78
2022/08/13 06:45:46;;;;;;;7.28;2.80;;;;;;;32.22;28.03;101735.19;5100349;28;20036;-78
2022/08/13 06:48:12;;;;;;;5.78;2.60;;;;;;;32.05;27.70;101738.47;5075795;28;20031;-78
2022/08/13 06:50:38;;;;;;;6.80;2.80;;;;;;;32.12;27.62;101740.53;5093265;28;20484;-79
2022/08/13 06:53:05;;;;;;;6.50;2.90;;;;;;;32.23;27.33;101736.91;5075270;28;20020;-80
2022/08/13 06:55:30;;;;;;;5.07;2.47;;;;;;;32.32;27.74;101746.03;5076210;28;20023;-80
2022/08/13 06:57:56;;;;;;;6.78;2.97;;;;;;;32.83;27.09;101737.97;5076267;28;20670;-80
2022/08/13 07:00:25;;;;;;;4.35;2.80;;;;;;;31.82;28.38;101744.06;5101020;28;20053;-80
2022/08/13 07:02:51;;;;;;;5.53;2.17;;;;;;;32.96;27.20;101735.81;5106711;28;20023;-80
2022/08/13 07:05:16;;;;;;;6.43;2.40;;;;;;;33.20;26.67;101735.41;5086230;28;20015;-81
2022/08/13 07:07:44;;;;;;;5.03;2.10;;;;;;;34.43;25.95;101741.03;5080396;28;20413;-80
2022/08/13 07:10:11;;;;;;;5.20;2.00;;;;;;;35.19;24.40;101745.28;5105838;28;20055;-79
2022/08/13 07:12:41;;;;;;;5.60;2.28;;;;;;;38.17;21.15;101734.31;5076250;28;20078;-80
2022/08/13 07:15:13;;;;;;;7.60;2.15;;;;;;;38.73;20.13;101747.06;5074425;28;20502;-80
2022/08/13 07:17:39;;;;;;;;;;;;;;;39.45;18.96;101734.94;5107999;28;20027;-80
2022/08/13 07:20:05;;;;;;;5.22;1.80;;;;;;;40.83;19.76;101744.41;5094520;28;19912;-80
2022/08/13 07:22:31;;;;;;;6.05;3.15;;;;;;;42.10;17.07;101754.72;5090415;28;20031;-80
2022/08/13 07:24:56;;;;;;;5.43;2.10;;;;;;;43.17;17.89;101749.59;5075829;28;20035;-81
2022/08/13 07:27:22;;;;;;;2.67;2.00;;;;;;;41.75;16.76;101752.00;5074991;28;20027;-80
2022/08/13 07:29:49;;;;;;;2.60;1.90;;;;;;;41.04;17.49;101751.81;5093545;28;20062;-78
2022/08/13 07:32:15;;;;;;;3.03;2.22;;;;;;;43.70;15.54;101746.00;5078411;28;20475;-77
2022/08/13 07:34:41;;;;;;;5.00;2.10;;;;;;;43.81;17.33;101744.50;5112493;28;20027;-77
2022/08/13 07:37:06;;;;;;;5.22;1.90;;;;;;;43.98;15.40;101755.91;5077857;28;20027;-76
2022/08/13 07:39:31;;;;;;;3.50;1.80;;;;;;;43.71;15.08;101751.28;5076024;28;20058;-77
2022/08/13 07:41:58;;;;;;;4.47;1.80;;;;;;;45.00;14.42;101753.28;5111530;28;20039;-76
2022/08/13 07:44:23;;;;;;;3.35;1.63;;;;;;;45.54;14.21;101744.59;5073166;28;20035;-76
2022/08/13 07:46:51;;;;;;;4.80;1.92;;;;;;;44.59;14.05;101751.84;5074977;28;20024;-78
2022/08/13 07:49:18;;;;;;;2.58;1.45;;;;;;;45.64;13.80;101753.19;5073559;28;20529;-77
2022/08/13 07:51:44;;;;;;;3.33;1.80;;;;;;;45.95;13.32;101759.69;5074392;28;20031;-77
2022/08/13 07:54:10;;;;;;;6.20;1.77;;;;;;;45.29;14.39;101761.13;5075270;28;20055;-77
2022/08/13 07:56:37;;;;;;;3.50;1.50;;;;;;;46.28;13.19;101766.75;5096317;28;20059;-77
2022/08/13 07:59:11;;;;;;;4.80;1.85;;;;;;;46.23;13.65;101764.63;5083722;28;20024;-77
2022/08/13 08:01:49;;;;;;;5.20;1.70;;;;;;;45.60;13.55;101759.41;5094753;28;20321;-77
2022/08/13 08:04:16;;;;;;;2.88;1.63;;;;;;;45.96;13.71;101761.38;5094154;28;20027;-77
2022/08/13 08:06:47;;;;;;;3.15;1.55;;;;;;;46.89;12.46;101769.50;5113013;28;20030;-76
2022/08/13 08:09:21;;;;;;;3.75;1.90;;;;;;;47.03;12.12;101768.25;5093311;28;20047;-77
2022/08/13 08:14:31;;;;;;;5.32;1.40;;;;;;;45.21;13.71;101770.56;5093393;28;20043;-77
2022/08/13 08:17:00;;;;;;;5.13;1.50;;;;;;;46.20;13.13;101772.56;5093352;28;20024;-77
2022/08/13 08:19:27;;;;;;;5.50;1.80;;;;;;;45.94;12.84;101766.28;5074586;28;20077;-76
2022/08/13 08:21:56;;;;;;;3.03;1.73;;;;;;;46.70;12.66;101775.13;5074282;28;20032;-81
2022/08/13 08:24:22;;;;;;;5.22;1.65;;;;;;;47.24;13.13;101771.53;5075095;28;20020;-82
2022/08/13 08:26:48;;;;;;;4.05;1.42;;;;;;;47.02;12.35;101769.31;5074411;28;20621;-81
2022/08/13 08:29:14;;;;;;;2.05;1.27;;;;;;;47.43;12.02;101774.19;5076572;28;20114;-81
2022/08/13 08:31:40;;;;;;;4.78;1.52;;;;;;;47.08;12.15;101766.69;5078208;28;20365;-81
2022/08/13 08:34:07;;;;;;;2.25;1.20;;;;;;;47.03;12.21;101768.25;5078404;28;20119;-81
2022/08/13 08:36:37;;;;;;;2.35;1.63;;;;;;;46.03;13.88;101762.13;5081265;28;20429;-81
2022/08/13 08:44:36;;;;;;;3.17;1.23;;;;;;;45.95;13.30;101765.22;5095679;28;20031;-81
2022/08/13 08:47:02;;;;;;;2.65;1.23;;;;;;;47.18;11.99;101772.47;5078554;28;20570;-81
2022/08/13 08:49:30;;;;;;;2.28;1.60;;;;;;;47.23;11.35;101764.31;5096667;28;20032;-80
2022/08/13 08:51:56;;;;;;;3.30;1.30;;;;;;;46.35;12.45;101781.31;5098261;28;20323;-81
2022/08/13 08:54:22;;;;;;;5.25;1.60;;;;;;;46.99;11.96;101774.44;5078109;28;20237;-80
2022/08/13 08:56:55;;;;;;;4.80;1.50;;;;;;;47.70;12.03;101775.38;5079627;28;20031;-79
2022/08/13 08:59:24;;;;;;;5.35;1.52;;;;;;;48.23;11.90;101767.97;5077448;28;20058;-81
2022/08/13 09:01:55;;;;;;;3.33;1.40;;;;;;;48.62;11.59;101770.09;5081475;28;20080;-80
2022/08/13 09:04:25;;;;;;;3.60;1.40;;;;;;;49.31;12.28;101771.88;5096579;28;20036;-80
2022/08/13 09:06:52;;;;;;;6.25;1.48;;;;;;;47.62;12.36;101772.13;5087718;28;20024;-81
2022/08/13 09:09:19;;;;;;;3.85;1.15;;;;;;;49.37;11.75;101764.44;5078685;28;20031;-81
2022/08/13 09:11:51;;;;;;;3.55;1.40;;;;;;;50.08;11.03;101764.66;5081090;28;20061;-81
2022/08/13 09:14:18;;;;;;;3.38;1.23;;;;;;;50.62;10.29;101773.28;5088102;28;20023;-80
2022/08/13 09:16:43;;;;;;;9.63;1.90;;;;;;;50.15;10.75;101774.69;5079456;28;20486;-79
2022/08/13 09:19:13;;;;;;;2.17;1.10;;;;;;;50.54;9.53;101763.50;5085813;28;20024;-79
2022/08/13 09:21:45;;;;;;;2.25;1.30;;;;;;;48.57;11.02;101762.56;5081546;28;20065;-79
2022/08/13 09:24:15;;;;;;;2.90;1.20;;;;;;;47.94;10.96;101763.44;5081110;28;20024;-78
2022/08/13 09:26:45;;;;;;;3.38;1.30;;;;;;;48.25;11.70;101759.41;5084805;28;20043;-79
2022/08/13 09:29:15;;;;;;;3.72;1.20;;;;;;;48.30;11.76;101765.06;5097862;28;20069;-79
2022/08/13 09:31:47;;;;;;;1.57;0.97;;;;;;;48.87;11.12;101760.59;5074691;28;20036;-78
2022/08/13 09:34:14;;;;;;;1.45;1.00;;;;;;;48.57;11.24;101753.38;5083516;28;20281;-79
2022/08/13 09:36:41;;;;;;;2.33;1.05;;;;;;;49.01;10.89;101753.63;5079775;28;20019;-78
2022/08/13 09:39:06;;;;;;;3.92;1.13;;;;;;;48.39;11.82;101755.25;5098044;28;20035;-79
2022/08/13 09:41:50;;;;;;;2.10;1.00;;;;;;;48.27;10.86;101751.69;5096391;28;20394;-78
2022/08/13 09:44:16;;;;;;;2.22;1.50;;;;;;;47.94;11.06;101753.22;5112394;28;20162;-78
2022/08/13 09:46:42;;;;;;;5.07;1.40;;;;;;;46.94;12.22;101757.72;5108147;28;20046;-78
2022/08/13 09:49:08;;;;;;;1.40;1.10;;;;;;;46.65;12.55;101752.00;5101432;28;20035;-79
2022/08/13 09:51:35;;;;;;;4.70;1.40;;;;;;;46.88;12.42;101746.56;5089403;28;20115;-78
2022/08/13 09:54:05;;;;;;;3.08;1.33;;;;;;;47.24;12.73;101749.38;5097561;28;20024;-79
2022/08/13 09:56:32;;;;;;;3.83;1.60;;;;;;;46.80;11.67;101748.78;5074512;28;20024;-78
2022/08/13 09:58:58;;;;;;;2.03;1.50;;;;;;;46.21;12.36;101746.63;5091310;28;20027;-79
2022/08/13 10:01:24;;;;;;;3.05;1.40;;;;;;;46.39;12.20;101743.00;5076337;28;20024;-78
2022/08/13 10:03:50;;;;;;;4.32;1.77;;;;;;;45.92;13.49;101735.31;5096518;28;20019;-78
2022/08/13 10:06:18;;;;;;;3.15;1.52;;;;;;;45.56;12.46;101735.03;5075779;28;20024;-79
2022/08/13 10:08:47;;;;;;;3.67;1.77;;;;;;;45.38;13.14;101737.72;5094190;28;20072;-78
2022/08/13 10:11:16;;;;;;;2.88;1.55;;;;;;;45.62;12.37;101738.78;5100697;28;20327;-79
2022/08/13 10:13:42;;;;;;;2.55;1.60;;;;;;;45.76;12.16;101733.13;5075925;28;20423;-79
2022/08/13 10:16:10;;;;;;;2.08;1.80;;;;;;;44.50;14.41;101725.63;5075237;28;20023;-78
2022/08/13 10:18:35;;;;;;;3.83;1.77;;;;;;;43.87;13.72;101727.13;5087150;28;20028;-79
2022/08/13 10:21:01;;;;;;;5.90;1.80;;;;;;;44.35;14.46;101718.50;5076712;28;20059;-78
2022/08/13 10:23:26;;;;;;;3.55;1.52;;;;;;;44.29;14.01;101719.38;5075332;28;20043;-80
2022/08/13 10:25:53;;;;;;;4.97;1.92;;;;;;;42.60;14.65;101727.09;5079238;28;20027;-78
2022/08/13 10:28:31;;;;;;;2.47;1.13;;;;;;;42.97;14.36;101722.94;5085812;28;20028;-79
2022/08/13 10:31:09;;;;;;;1.58;0.95;;;;;;;43.04;14.39;101718.28;5073472;28;20417;-79
2022/08/13 10:33:36;;;;;;;3.55;1.10;;;;;;;42.82;14.01;101720.38;5093088;28;20027;-77
2022/08/13 10:36:02;;;;;;;7.75;1.40;;;;;;;42.86;14.44;101718.06;5088863;28;20023;-78
2022/08/13 10:38:27;;;;;;;2.92;1.27;;;;;;;42.29;14.55;101721.09;5102407;28;20038;-78
2022/08/13 10:40:54;;;;;;;2.08;1.88;;;;;;;41.31;15.65;101716.41;5103980;28;20098;-77
2022/08/13 10:43:23;;;;;;;3.67;1.60;;;;;;;42.05;15.40;101715.00;5091278;28;20068;-78
2022/08/13 10:45:50;;;;;;;2.65;1.10;;;;;;;41.98;14.98;101711.41;5078607;28;20059;-77
2022/08/13 10:48:17;;;;;;;3.13;1.17;;;;;;;42.38;14.57;101714.31;5078422;28;20085;-77
2022/08/13 10:50:42;;;;;;;2.28;1.05;;;;;;;43.12;14.76;101699.94;5075218;28;20031;-78
2022/08/13 10:53:08;;;;;;;3.30;1.20;;;;;;;42.76;14.96;101706.63;5074556;28;20046;-78
2022/08/13 10:55:35;;;;;;;2.17;1.40;;;;;;;42.55;14.56;101697.47;5079096;28;20395;-76
2022/08/13 10:58:13;;;;;;;3.22;1.40;;;;;;;42.44;14.98;101700.81;5093688;28;20035;-78
2022/08/13 11:00:39;;;;;;;4.75;1.10;;;;;;;41.07;14.78;101694.91;5076092;28;20749;-78
2022/08/13 11:03:05;;;;;;;2.72;1.13;;;;;;;41.13;15.45;101699.59;5075847;28;20028;-79
2022/08/13 11:05:30;;;;;;;1.27;1.00;;;;;;;42.52;14.53;101701.47;5088377;28;20031;-78
2022/08/13 11:07:56;;;;;;;2.78;1.10;;;;;;;41.69;14.93;101702.34;5107400;28;20084;-78
2022/08/13 11:10:22;;;;;;;1.35;1.17;;;;;;;42.15;14.95;101702.81;5082487;28;20042;-78
2022/08/13 11:12:51;;;;;;;3.70;1.00;;;;;;;43.48;13.73;101695.91;5090979;28;20027;-79
2022/08/13 11:15:20;;;;;;;4.40;1.10;;;;;;;42.47;14.62;101703.16;5079614;28;20016;-78
2022/08/13 11:17:50;;;;;;;2.60;1.13;;;;;;;43.99;14.71;101695.13;5074746;28;20470;-79
2022/08/13 11:20:19;;;;;;;3.75;1.10;;;;;;;43.04;14.12;101688.03;5074418;28;20020;-78
2022/08/13 11:22:46;;;;;;;2.38;0.90;;;;;;;44.04;13.26;101692.56;5074826;28;20028;-78
2022/08/13 11:25:12;;;;;;;2.03;1.20;;;;;;;44.07;12.93;101687.69;5077400;28;20031;-79
2022/08/13 11:27:37;;;;;;;10.50;1.25;;;;;;;44.24;13.99;101677.84;5092477;28;20387;-78
2022/08/13 11:30:03;;;;;;;1.90;0.90;;;;;;;43.80;13.59;101676.75;5081826;28;20072;-78
2022/08/13 11:32:28;;;;;;;2.60;1.00;;;;;;;42.25;14.70;101681.34;5079742;28;20498;-79
2022/08/13 11:34:54;;;;;;;2.70;1.13;;;;;;;42.23;14.95;101677.13;5092348;28;20020;-79
2022/08/13 11:37:20;;;;;;;3.78;1.02;;;;;;;43.02;14.37;101670.91;5074854;28;20042;-78
2022/08/13 11:39:45;;;;;;;4.63;1.23;;;;;;;43.00;14.73;101667.53;5079222;28;20031;-79
2022/08/13 11:42:10;;;;;;;5.97;1.42;;;;;;;42.57;14.77;101669.78;5092657;28;20479;-77
2022/08/13 11:44:36;;;;;;;3.70;1.17;;;;;;;44.08;13.88;101664.59;5076320;28;20059;-78
2022/08/13 11:47:01;;;;;;;3.38;1.20;;;;;;;43.39;13.23;101665.84;5112165;28;20428;-78
2022/08/13 11:49:27;;;;;;;5.30;1.20;;;;;;;44.37;12.79;101671.47;5094287;28;20225;-78
2022/08/13 11:51:52;;;;;;;2.58;1.20;;;;;;;44.83;12.67;101674.97;5089420;28;20072;-78